sensor_id;sensor_type;location;lat;lon;timestamp;temperature;humidity
57282;DHT22;43129;52.628;10.098;2023-09-19T00:02:18;15.40;99.90
57282;DHT22;43129;52.628;10.098;2023-09-19T00:04:46;15.40;99.90
57282;DHT22;43129;52.628;10.098;2023-09-19T00:07:14;15.40;99.90
57282;DHT22;43129;52.628;10.098;2023-09-19T00:09:42;15.30;99.90
57282;DHT22;43129;52.628;10.098;2023-09-19T00:12:12;15.30;99.90
57282;DHT22;43129;52.628;10.098;2023-09-19T00:14:41;15.30;99.90
57282;DHT22;43129;52.628;10.098;2023-09-19T00:17:09;15.30;99.90
57282;DHT22;43129;52.628;10.098;2023-09-19T00:19:37;15.30;99.90
57282;DHT22;43129;52.628;10.098;2023-09-19T00:22:08;15.30;99.90
57282;DHT22;43129;52.628;10.098;2023-09-19T00:24:33;15.30;99.90
57282;DHT22;43129;52.628;10.098;2023-09-19T00:26:59;15.40;99.90
57282;DHT22;43129;52.628;10.098;2023-09-19T00:29:30;15.30;99.90
57282;DHT22;43129;52.628;10.098;2023-09-19T00:32:01;15.40;99.90
57282;DHT22;43129;52.628;10.098;2023-09-19T00:34:31;15.40;99.90
57282;DHT22;43129;52.628;10.098;2023-09-19T00:36:59;15.40;99.90
57282;DHT22;43129;52.628;10.098;2023-09-19T00:39:27;15.40;99.90
57282;DHT22;43129;52.628;10.098;2023-09-19T00:41:57;15.30;99.90
57282;DHT22;43129;52.628;10.098;2023-09-19T00:44:22;15.30;99.90
57282;DHT22;43129;52.628;10.098;2023-09-19T00:46:49;15.30;99.90
57282;DHT22;43129;52.628;10.098;2023-09-19T00:49:16;15.30;99.90
57282;DHT22;43129;52.628;10.098;2023-09-19T00:51:42;15.30;99.90
57282;DHT22;43129;52.628;10.098;2023-09-19T00:54:11;15.30;99.90
57282;DHT22;43129;52.628;10.098;2023-09-19T00:56:42;15.30;99.90
57282;DHT22;43129;52.628;10.098;2023-09-19T00:59:08;15.30;99.90
57282;DHT22;43129;52.628;10.098;2023-09-19T01:01:37;15.40;99.90
57282;DHT22;43129;52.628;10.098;2023-09-19T01:04:05;15.60;99.90
57282;DHT22;43129;52.628;10.098;2023-09-19T01:06:31;15.80;99.90
57282;DHT22;43129;52.628;10.098;2023-09-19T01:08:57;15.80;99.90
57282;DHT22;43129;52.628;10.098;2023-09-19T01:11:35;15.90;99.90
57282;DHT22;43129;52.628;10.098;2023-09-19T01:14:44;15.90;99.90
57282;DHT22;43129;52.628;10.098;2023-09-19T01:17:29;15.90;99.90
57282;DHT22;43129;52.628;10.098;2023-09-19T01:20:14;15.90;99.90
57282;DHT22;43129;52.628;10.098;2023-09-19T01:23:11;15.90;99.90
57282;DHT22;43129;52.628;10.098;2023-09-19T01:31:12;16.00;99.90
57282;DHT22;43129;52.628;10.098;2023-09-19T01:33:57;16.00;99.90
57282;DHT22;43129;52.628;10.098;2023-09-19T01:36:25;16.00;99.90
57282;DHT22;43129;52.628;10.098;2023-09-19T01:38:54;16.00;99.90
57282;DHT22;43129;52.628;10.098;2023-09-19T01:42:08;16.00;99.90
57282;DHT22;43129;52.628;10.098;2023-09-19T01:44:25;16.00;99.90
57282;DHT22;43129;52.628;10.098;2023-09-19T01:46:58;15.90;99.90
57282;DHT22;43129;52.628;10.098;2023-09-19T01:49:41;15.90;99.90
57282;DHT22;43129;52.628;10.098;2023-09-19T01:52:13;16.00;99.90
57282;DHT22;43129;52.628;10.098;2023-09-19T01:54:51;16.00;99.90
57282;DHT22;43129;52.628;10.098;2023-09-19T01:57:26;16.00;99.90
57282;DHT22;43129;52.628;10.098;2023-09-19T02:00:08;16.00;99.90
57282;DHT22;43129;52.628;10.098;2023-09-19T02:02:45;16.00;99.90
57282;DHT22;43129;52.628;10.098;2023-09-19T02:05:22;16.00;99.90
57282;DHT22;43129;52.628;10.098;2023-09-19T02:07:49;16.00;99.90
57282;DHT22;43129;52.628;10.098;2023-09-19T02:10:14;16.00;99.90
57282;DHT22;43129;52.628;10.098;2023-09-19T02:12:40;16.10;99.90
57282;DHT22;43129;52.628;10.098;2023-09-19T02:15:08;16.10;99.90
57282;DHT22;43129;52.628;10.098;2023-09-19T02:17:36;16.10;99.90
57282;DHT22;43129;52.628;10.098;2023-09-19T02:20:03;16.20;99.90
57282;DHT22;43129;52.628;10.098;2023-09-19T02:22:36;16.20;99.90
57282;DHT22;43129;52.628;10.098;2023-09-19T02:25:02;16.10;99.90
57282;DHT22;43129;52.628;10.098;2023-09-19T02:27:30;16.10;99.90
57282;DHT22;43129;52.628;10.098;2023-09-19T02:29:58;16.00;99.90
57282;DHT22;43129;52.628;10.098;2023-09-19T02:32:24;16.10;99.90
57282;DHT22;43129;52.628;10.098;2023-09-19T02:34:52;16.00;99.90
57282;DHT22;43129;52.628;10.098;2023-09-19T02:37:18;16.00;99.90
57282;DHT22;43129;52.628;10.098;2023-09-19T02:39:45;16.00;99.90
57282;DHT22;43129;52.628;10.098;2023-09-19T02:42:12;15.90;99.90
57282;DHT22;43129;52.628;10.098;2023-09-19T02:44:38;16.00;99.90
57282;DHT22;43129;52.628;10.098;2023-09-19T02:47:05;16.00;99.90
57282;DHT22;43129;52.628;10.098;2023-09-19T02:49:31;16.10;99.90
57282;DHT22;43129;52.628;10.098;2023-09-19T02:51:56;16.10;99.90
57282;DHT22;43129;52.628;10.098;2023-09-19T02:54:24;16.10;99.90
57282;DHT22;43129;52.628;10.098;2023-09-19T02:56:52;16.10;99.90
57282;DHT22;43129;52.628;10.098;2023-09-19T02:59:21;16.10;99.90
57282;DHT22;43129;52.628;10.098;2023-09-19T03:01:47;16.10;99.90
57282;DHT22;43129;52.628;10.098;2023-09-19T03:04:16;16.00;99.90
57282;DHT22;43129;52.628;10.098;2023-09-19T03:06:45;16.00;99.90
57282;DHT22;43129;52.628;10.098;2023-09-19T03:09:11;16.00;99.90
57282;DHT22;43129;52.628;10.098;2023-09-19T03:11:37;16.00;99.90
57282;DHT22;43129;52.628;10.098;2023-09-19T03:14:07;16.00;99.90
57282;DHT22;43129;52.628;10.098;2023-09-19T03:16:35;16.00;99.90
57282;DHT22;43129;52.628;10.098;2023-09-19T03:19:02;16.10;99.90
57282;DHT22;43129;52.628;10.098;2023-09-19T03:21:28;16.00;99.90
57282;DHT22;43129;52.628;10.098;2023-09-19T03:23:55;16.00;99.90
57282;DHT22;43129;52.628;10.098;2023-09-19T03:26:21;15.90;99.90
57282;DHT22;43129;52.628;10.098;2023-09-19T03:28:47;15.90;99.90
57282;DHT22;43129;52.628;10.098;2023-09-19T03:31:12;15.90;99.90
57282;DHT22;43129;52.628;10.098;2023-09-19T03:33:41;15.80;99.90
57282;DHT22;43129;52.628;10.098;2023-09-19T03:36:12;15.80;99.90
57282;DHT22;43129;52.628;10.098;2023-09-19T03:38:38;15.80;99.90
57282;DHT22;43129;52.628;10.098;2023-09-19T03:41:04;15.70;99.90
57282;DHT22;43129;52.628;10.098;2023-09-19T03:43:32;15.70;99.90
57282;DHT22;43129;52.628;10.098;2023-09-19T03:46:03;15.70;99.90
57282;DHT22;43129;52.628;10.098;2023-09-19T03:48:35;15.70;99.90
57282;DHT22;43129;52.628;10.098;2023-09-19T03:51:04;15.70;99.90
57282;DHT22;43129;52.628;10.098;2023-09-19T03:53:30;15.70;99.90
57282;DHT22;43129;52.628;10.098;2023-09-19T03:55:55;15.70;99.90
57282;DHT22;43129;52.628;10.098;2023-09-19T03:58:21;15.60;99.90
57282;DHT22;43129;52.628;10.098;2023-09-19T04:00:46;15.60;99.90
57282;DHT22;43129;52.628;10.098;2023-09-19T04:03:15;15.60;99.90
57282;DHT22;43129;52.628;10.098;2023-09-19T04:05:46;15.60;99.90
57282;DHT22;43129;52.628;10.098;2023-09-19T04:08:13;15.70;99.90
57282;DHT22;43129;52.628;10.098;2023-09-19T04:10:42;15.60;99.90
57282;DHT22;43129;52.628;10.098;2023-09-19T04:13:11;15.70;99.90
57282;DHT22;43129;52.628;10.098;2023-09-19T04:15:39;15.60;99.90
57282;DHT22;43129;52.628;10.098;2023-09-19T04:18:05;15.60;99.90
57282;DHT22;43129;52.628;10.098;2023-09-19T04:20:33;15.70;99.90
57282;DHT22;43129;52.628;10.098;2023-09-19T04:23:01;15.70;99.90
57282;DHT22;43129;52.628;10.098;2023-09-19T04:25:27;15.80;99.90
57282;DHT22;43129;52.628;10.098;2023-09-19T04:27:55;15.80;99.90
57282;DHT22;43129;52.628;10.098;2023-09-19T04:30:25;15.80;99.90
57282;DHT22;43129;52.628;10.098;2023-09-19T04:32:52;15.80;99.90
57282;DHT22;43129;52.628;10.098;2023-09-19T04:35:18;15.80;99.90
57282;DHT22;43129;52.628;10.098;2023-09-19T04:37:44;15.70;99.90
57282;DHT22;43129;52.628;10.098;2023-09-19T04:40:10;15.70;99.90
57282;DHT22;43129;52.628;10.098;2023-09-19T04:42:39;15.70;99.90
57282;DHT22;43129;52.628;10.098;2023-09-19T04:45:05;15.70;99.90
57282;DHT22;43129;52.628;10.098;2023-09-19T04:47:31;15.60;99.90
57282;DHT22;43129;52.628;10.098;2023-09-19T04:49:57;15.60;99.90
57282;DHT22;43129;52.628;10.098;2023-09-19T04:52:24;15.60;99.90
57282;DHT22;43129;52.628;10.098;2023-09-19T04:54:50;15.60;99.90
57282;DHT22;43129;52.628;10.098;2023-09-19T04:57:15;15.60;99.90
57282;DHT22;43129;52.628;10.098;2023-09-19T04:59:41;15.60;99.90
57282;DHT22;43129;52.628;10.098;2023-09-19T05:02:11;15.60;99.90
57282;DHT22;43129;52.628;10.098;2023-09-19T05:04:37;15.60;99.90
57282;DHT22;43129;52.628;10.098;2023-09-19T05:07:04;15.50;99.90
57282;DHT22;43129;52.628;10.098;2023-09-19T05:09:32;15.50;99.90
57282;DHT22;43129;52.628;10.098;2023-09-19T05:12:00;15.50;99.90
57282;DHT22;43129;52.628;10.098;2023-09-19T05:14:25;15.50;99.90
57282;DHT22;43129;52.628;10.098;2023-09-19T05:16:53;15.50;99.90
57282;DHT22;43129;52.628;10.098;2023-09-19T05:19:20;15.60;99.90
57282;DHT22;43129;52.628;10.098;2023-09-19T05:21:48;15.50;99.90
57282;DHT22;43129;52.628;10.098;2023-09-19T05:24:14;15.50;99.90
57282;DHT22;43129;52.628;10.098;2023-09-19T05:26:40;15.50;99.90
57282;DHT22;43129;52.628;10.098;2023-09-19T05:29:08;15.50;99.90
57282;DHT22;43129;52.628;10.098;2023-09-19T05:31:34;15.50;99.90
57282;DHT22;43129;52.628;10.098;2023-09-19T05:34:08;15.50;99.90
57282;DHT22;43129;52.628;10.098;2023-09-19T05:36:36;15.40;99.90
57282;DHT22;43129;52.628;10.098;2023-09-19T05:39:02;15.40;99.90
57282;DHT22;43129;52.628;10.098;2023-09-19T05:41:33;15.40;99.90
57282;DHT22;43129;52.628;10.098;2023-09-19T05:44:00;15.40;99.90
57282;DHT22;43129;52.628;10.098;2023-09-19T05:46:28;15.40;99.90
57282;DHT22;43129;52.628;10.098;2023-09-19T05:48:55;15.40;99.90
57282;DHT22;43129;52.628;10.098;2023-09-19T05:51:26;15.40;99.90
57282;DHT22;43129;52.628;10.098;2023-09-19T05:53:56;15.40;99.90
57282;DHT22;43129;52.628;10.098;2023-09-19T05:56:21;15.40;99.90
57282;DHT22;43129;52.628;10.098;2023-09-19T05:58:47;15.50;99.90
57282;DHT22;43129;52.628;10.098;2023-09-19T06:01:13;15.50;99.90
57282;DHT22;43129;52.628;10.098;2023-09-19T06:03:39;15.50;99.90
57282;DHT22;43129;52.628;10.098;2023-09-19T06:06:04;15.50;99.90
57282;DHT22;43129;52.628;10.098;2023-09-19T06:08:32;15.40;99.90
57282;DHT22;43129;52.628;10.098;2023-09-19T06:11:03;15.50;99.90
57282;DHT22;43129;52.628;10.098;2023-09-19T06:13:32;15.50;99.90
57282;DHT22;43129;52.628;10.098;2023-09-19T06:15:59;15.50;99.90
57282;DHT22;43129;52.628;10.098;2023-09-19T06:18:28;15.40;99.90
57282;DHT22;43129;52.628;10.098;2023-09-19T06:20:55;15.30;99.90
57282;DHT22;43129;52.628;10.098;2023-09-19T06:23:21;15.30;99.90
57282;DHT22;43129;52.628;10.098;2023-09-19T06:25:47;15.40;99.90
57282;DHT22;43129;52.628;10.098;2023-09-19T06:28:41;15.50;99.90
57282;DHT22;43129;52.628;10.098;2023-09-19T06:31:10;15.60;99.90
57282;DHT22;43129;52.628;10.098;2023-09-19T06:33:39;15.60;99.90
57282;DHT22;43129;52.628;10.098;2023-09-19T06:36:07;15.80;99.90
57282;DHT22;43129;52.628;10.098;2023-09-19T06:38:33;15.90;99.90
57282;DHT22;43129;52.628;10.098;2023-09-19T06:41:01;15.90;99.90
57282;DHT22;43129;52.628;10.098;2023-09-19T06:43:30;16.20;99.90
57282;DHT22;43129;52.628;10.098;2023-09-19T06:45:56;16.40;99.90
57282;DHT22;43129;52.628;10.098;2023-09-19T06:48:24;16.70;99.90
57282;DHT22;43129;52.628;10.098;2023-09-19T06:50:58;16.80;99.90
57282;DHT22;43129;52.628;10.098;2023-09-19T06:53:26;17.00;99.90
57282;DHT22;43129;52.628;10.098;2023-09-19T06:55:54;17.00;99.90
57282;DHT22;43129;52.628;10.098;2023-09-19T06:58:20;17.40;99.90
57282;DHT22;43129;52.628;10.098;2023-09-19T07:00:46;17.30;99.90
57282;DHT22;43129;52.628;10.098;2023-09-19T07:03:13;17.30;99.90
57282;DHT22;43129;52.628;10.098;2023-09-19T07:05:40;17.50;99.90
57282;DHT22;43129;52.628;10.098;2023-09-19T07:08:10;17.50;99.90
57282;DHT22;43129;52.628;10.098;2023-09-19T07:10:41;17.40;99.90
57282;DHT22;43129;52.628;10.098;2023-09-19T07:13:16;17.80;99.90
57282;DHT22;43129;52.628;10.098;2023-09-19T07:15:44;18.10;99.90
57282;DHT22;43129;52.628;10.098;2023-09-19T07:18:16;17.80;99.90
57282;DHT22;43129;52.628;10.098;2023-09-19T07:20:45;17.80;99.90
57282;DHT22;43129;52.628;10.098;2023-09-19T07:23:20;17.80;99.90
57282;DHT22;43129;52.628;10.098;2023-09-19T07:25:48;17.90;99.90
57282;DHT22;43129;52.628;10.098;2023-09-19T07:28:14;18.00;99.90
57282;DHT22;43129;52.628;10.098;2023-09-19T07:30:40;18.00;99.90
57282;DHT22;43129;52.628;10.098;2023-09-19T07:33:09;18.00;99.90
57282;DHT22;43129;52.628;10.098;2023-09-19T07:35:38;18.50;99.90
57282;DHT22;43129;52.628;10.098;2023-09-19T07:38:07;18.80;99.90
57282;DHT22;43129;52.628;10.098;2023-09-19T07:40:33;19.20;99.90
57282;DHT22;43129;52.628;10.098;2023-09-19T07:42:59;19.00;99.90
57282;DHT22;43129;52.628;10.098;2023-09-19T07:45:28;18.80;99.90
57282;DHT22;43129;52.628;10.098;2023-09-19T07:47:55;18.60;99.90
57282;DHT22;43129;52.628;10.098;2023-09-19T07:50:21;18.70;99.90
57282;DHT22;43129;52.628;10.098;2023-09-19T07:52:50;18.90;99.90
57282;DHT22;43129;52.628;10.098;2023-09-19T07:55:19;19.00;99.90
57282;DHT22;43129;52.628;10.098;2023-09-19T07:57:49;19.20;99.90
57282;DHT22;43129;52.628;10.098;2023-09-19T08:00:17;19.60;99.90
57282;DHT22;43129;52.628;10.098;2023-09-19T08:02:43;19.40;99.90
57282;DHT22;43129;52.628;10.098;2023-09-19T08:05:10;18.90;99.90
57282;DHT22;43129;52.628;10.098;2023-09-19T08:07:39;18.70;99.90
57282;DHT22;43129;52.628;10.098;2023-09-19T08:10:06;18.80;99.90
57282;DHT22;43129;52.628;10.098;2023-09-19T08:12:42;19.10;99.90
57282;DHT22;43129;52.628;10.098;2023-09-19T08:15:20;19.30;99.90
57282;DHT22;43129;52.628;10.098;2023-09-19T08:17:47;19.20;99.90
57282;DHT22;43129;52.628;10.098;2023-09-19T08:20:15;19.80;99.90
57282;DHT22;43129;52.628;10.098;2023-09-19T08:22:49;19.60;99.90
57282;DHT22;43129;52.628;10.098;2023-09-19T08:25:18;19.30;99.90
57282;DHT22;43129;52.628;10.098;2023-09-19T08:27:49;19.70;99.90
57282;DHT22;43129;52.628;10.098;2023-09-19T08:30:17;20.00;99.90
57282;DHT22;43129;52.628;10.098;2023-09-19T08:32:50;19.70;99.90
57282;DHT22;43129;52.628;10.098;2023-09-19T08:35:20;19.90;99.90
57282;DHT22;43129;52.628;10.098;2023-09-19T08:37:45;19.80;99.90
57282;DHT22;43129;52.628;10.098;2023-09-19T08:40:11;19.40;99.90
57282;DHT22;43129;52.628;10.098;2023-09-19T08:42:54;19.00;99.90
57282;DHT22;43129;52.628;10.098;2023-09-19T08:45:20;19.10;99.90
57282;DHT22;43129;52.628;10.098;2023-09-19T08:48:05;19.20;99.90
57282;DHT22;43129;52.628;10.098;2023-09-19T08:50:56;19.20;99.90
57282;DHT22;43129;52.628;10.098;2023-09-19T08:56:00;19.70;99.90
57282;DHT22;43129;52.628;10.098;2023-09-19T08:58:31;19.60;99.90
57282;DHT22;43129;52.628;10.098;2023-09-19T09:01:04;19.50;99.90
57282;DHT22;43129;52.628;10.098;2023-09-19T09:03:35;19.40;99.90
57282;DHT22;43129;52.628;10.098;2023-09-19T09:06:02;19.50;99.90
57282;DHT22;43129;52.628;10.098;2023-09-19T09:08:31;19.50;99.90
57282;DHT22;43129;52.628;10.098;2023-09-19T09:10:58;19.30;99.90
57282;DHT22;43129;52.628;10.098;2023-09-19T09:13:26;19.20;99.90
57282;DHT22;43129;52.628;10.098;2023-09-19T09:15:55;19.20;99.90
57282;DHT22;43129;52.628;10.098;2023-09-19T09:18:23;19.50;99.90
57282;DHT22;43129;52.628;10.098;2023-09-19T09:20:49;19.90;99.90
57282;DHT22;43129;52.628;10.098;2023-09-19T09:23:15;20.30;99.80
57282;DHT22;43129;52.628;10.098;2023-09-19T09:25:54;20.30;98.50
57282;DHT22;43129;52.628;10.098;2023-09-19T09:28:27;20.20;98.10
57282;DHT22;43129;52.628;10.098;2023-09-19T09:30:54;20.10;97.50
57282;DHT22;43129;52.628;10.098;2023-09-19T09:33:21;20.10;96.30
57282;DHT22;43129;52.628;10.098;2023-09-19T09:35:55;20.40;96.10
57282;DHT22;43129;52.628;10.098;2023-09-19T09:38:42;20.50;96.30
57282;DHT22;43129;52.628;10.098;2023-09-19T09:41:11;21.50;94.90
57282;DHT22;43129;52.628;10.098;2023-09-19T09:43:43;21.40;93.20
57282;DHT22;43129;52.628;10.098;2023-09-19T09:46:16;21.20;93.30
57282;DHT22;43129;52.628;10.098;2023-09-19T09:51:40;21.40;91.90
57282;DHT22;43129;52.628;10.098;2023-09-19T09:54:15;21.00;92.60
57282;DHT22;43129;52.628;10.098;2023-09-19T09:57:26;21.20;93.00
57282;DHT22;43129;52.628;10.098;2023-09-19T09:59:50;21.20;92.50
57282;DHT22;43129;52.628;10.098;2023-09-19T10:02:20;20.70;92.70
57282;DHT22;43129;52.628;10.098;2023-09-19T10:04:55;20.60;92.90
57282;DHT22;43129;52.628;10.098;2023-09-19T10:07:30;20.90;93.40
57282;DHT22;43129;52.628;10.098;2023-09-19T10:10:03;21.30;92.60
57282;DHT22;43129;52.628;10.098;2023-09-19T10:12:44;21.60;91.30
57282;DHT22;43129;52.628;10.098;2023-09-19T10:15:11;21.30;92.20
57282;DHT22;43129;52.628;10.098;2023-09-19T10:17:43;20.60;92.40
57282;DHT22;43129;52.628;10.098;2023-09-19T10:20:13;20.30;93.90
57282;DHT22;43129;52.628;10.098;2023-09-19T10:23:01;20.10;94.10
57282;DHT22;43129;52.628;10.098;2023-09-19T10:25:29;20.30;94.50
57282;DHT22;43129;52.628;10.098;2023-09-19T10:28:00;20.20;94.70
57282;DHT22;43129;52.628;10.098;2023-09-19T10:30:31;20.00;95.10
57282;DHT22;43129;52.628;10.098;2023-09-19T10:33:02;19.80;94.70
57282;DHT22;43129;52.628;10.098;2023-09-19T10:35:34;20.40;93.80
57282;DHT22;43129;52.628;10.098;2023-09-19T10:38:06;20.80;92.90
57282;DHT22;43129;52.628;10.098;2023-09-19T10:40:35;21.10;91.70
57282;DHT22;43129;52.628;10.098;2023-09-19T10:43:07;21.00;92.30
57282;DHT22;43129;52.628;10.098;2023-09-19T10:45:36;20.70;91.80
57282;DHT22;43129;52.628;10.098;2023-09-19T10:48:05;20.40;92.10
57282;DHT22;43129;52.628;10.098;2023-09-19T10:53:18;20.00;93.50
57282;DHT22;43129;52.628;10.098;2023-09-19T10:55:59;19.80;94.00
57282;DHT22;43129;52.628;10.098;2023-09-19T10:58:29;19.80;94.50
57282;DHT22;43129;52.628;10.098;2023-09-19T11:01:00;20.10;92.80
57282;DHT22;43129;52.628;10.098;2023-09-19T11:03:38;20.20;92.60
57282;DHT22;43129;52.628;10.098;2023-09-19T11:06:16;20.80;91.70
57282;DHT22;43129;52.628;10.098;2023-09-19T11:09:04;21.10;91.10
57282;DHT22;43129;52.628;10.098;2023-09-19T11:11:48;22.20;89.80
57282;DHT22;43129;52.628;10.098;2023-09-19T11:30:56;20.70;92.30
57282;DHT22;43129;52.628;10.098;2023-09-19T11:33:25;21.00;90.80
57282;DHT22;43129;52.628;10.098;2023-09-19T11:43:51;21.00;90.70
57282;DHT22;43129;52.628;10.098;2023-09-19T11:46:20;21.40;90.80
57282;DHT22;43129;52.628;10.098;2023-09-19T11:48:50;21.60;87.80
57282;DHT22;43129;52.628;10.098;2023-09-19T11:53:48;21.30;85.00
57282;DHT22;43129;52.628;10.098;2023-09-19T11:56:20;21.30;84.30
57282;DHT22;43129;52.628;10.098;2023-09-19T11:58:49;21.70;82.00
57282;DHT22;43129;52.628;10.098;2023-09-19T12:03:56;22.30;80.80
57282;DHT22;43129;52.628;10.098;2023-09-19T12:06:29;22.20;81.10
57282;DHT22;43129;52.628;10.098;2023-09-19T12:09:00;21.90;77.70
57282;DHT22;43129;52.628;10.098;2023-09-19T12:11:32;21.70;80.60
57282;DHT22;43129;52.628;10.098;2023-09-19T12:14:03;21.70;80.80
57282;DHT22;43129;52.628;10.098;2023-09-19T12:16:31;21.20;82.20
57282;DHT22;43129;52.628;10.098;2023-09-19T12:19:18;21.00;84.80
57282;DHT22;43129;52.628;10.098;2023-09-19T12:21:58;21.40;81.90
57282;DHT22;43129;52.628;10.098;2023-09-19T12:24:26;21.60;80.60
57282;DHT22;43129;52.628;10.098;2023-09-19T12:26:59;21.40;81.80
57282;DHT22;43129;52.628;10.098;2023-09-19T12:29:27;21.20;80.20
57282;DHT22;43129;52.628;10.098;2023-09-19T12:31:54;21.10;82.00
57282;DHT22;43129;52.628;10.098;2023-09-19T12:34:32;20.80;80.60
57282;DHT22;43129;52.628;10.098;2023-09-19T12:39:41;21.10;80.50
57282;DHT22;43129;52.628;10.098;2023-09-19T12:42:11;21.40;79.40
57282;DHT22;43129;52.628;10.098;2023-09-19T12:44:48;21.80;78.20
57282;DHT22;43129;52.628;10.098;2023-09-19T12:47:20;22.10;77.00
57282;DHT22;43129;52.628;10.098;2023-09-19T12:52:50;22.00;79.10
57282;DHT22;43129;52.628;10.098;2023-09-19T13:00:52;21.80;78.60
57282;DHT22;43129;52.628;10.098;2023-09-19T13:05:52;22.00;79.60
57282;DHT22;43129;52.628;10.098;2023-09-19T13:08:38;22.20;79.20
57282;DHT22;43129;52.628;10.098;2023-09-19T13:13:45;23.30;75.70
57282;DHT22;43129;52.628;10.098;2023-09-19T13:16:14;22.90;75.50
57282;DHT22;43129;52.628;10.098;2023-09-19T13:18:54;22.40;76.10
57282;DHT22;43129;52.628;10.098;2023-09-19T13:21:34;21.90;77.40
57282;DHT22;43129;52.628;10.098;2023-09-19T13:24:25;21.80;78.40
57282;DHT22;43129;52.628;10.098;2023-09-19T13:26:56;21.40;79.50
57282;DHT22;43129;52.628;10.098;2023-09-19T13:29:22;21.00;81.30
57282;DHT22;43129;52.628;10.098;2023-09-19T13:31:52;21.00;82.70
57282;DHT22;43129;52.628;10.098;2023-09-19T13:34:21;21.30;79.60
57282;DHT22;43129;52.628;10.098;2023-09-19T13:36:47;21.30;79.90
57282;DHT22;43129;52.628;10.098;2023-09-19T13:39:21;21.70;79.70
57282;DHT22;43129;52.628;10.098;2023-09-19T13:41:50;21.90;79.10
57282;DHT22;43129;52.628;10.098;2023-09-19T13:44:15;22.10;77.90
57282;DHT22;43129;52.628;10.098;2023-09-19T13:46:48;22.10;76.40
57282;DHT22;43129;52.628;10.098;2023-09-19T13:49:13;22.00;78.00
57282;DHT22;43129;52.628;10.098;2023-09-19T13:51:39;22.60;76.10
57282;DHT22;43129;52.628;10.098;2023-09-19T13:54:11;23.00;73.00
57282;DHT22;43129;52.628;10.098;2023-09-19T13:56:39;23.10;73.10
57282;DHT22;43129;52.628;10.098;2023-09-19T13:59:05;23.20;71.60
57282;DHT22;43129;52.628;10.098;2023-09-19T14:01:33;22.60;72.50
57282;DHT22;43129;52.628;10.098;2023-09-19T14:04:01;22.50;73.20
57282;DHT22;43129;52.628;10.098;2023-09-19T14:06:30;22.20;73.00
57282;DHT22;43129;52.628;10.098;2023-09-19T14:08:55;22.60;72.50
57282;DHT22;43129;52.628;10.098;2023-09-19T14:11:21;22.30;74.10
57282;DHT22;43129;52.628;10.098;2023-09-19T14:13:47;22.50;74.00
57282;DHT22;43129;52.628;10.098;2023-09-19T14:16:15;22.10;74.90
57282;DHT22;43129;52.628;10.098;2023-09-19T14:18:41;22.20;75.30
57282;DHT22;43129;52.628;10.098;2023-09-19T14:21:10;23.20;72.20
57282;DHT22;43129;52.628;10.098;2023-09-19T14:23:37;23.70;68.80
57282;DHT22;43129;52.628;10.098;2023-09-19T14:26:05;23.50;67.50
57282;DHT22;43129;52.628;10.098;2023-09-19T14:28:32;22.90;69.00
57282;DHT22;43129;52.628;10.098;2023-09-19T14:31:12;23.20;68.20
57282;DHT22;43129;52.628;10.098;2023-09-19T14:33:40;22.20;71.00
57282;DHT22;43129;52.628;10.098;2023-09-19T14:36:11;22.00;73.30
57282;DHT22;43129;52.628;10.098;2023-09-19T14:38:39;21.80;74.40
57282;DHT22;43129;52.628;10.098;2023-09-19T14:41:07;22.20;73.50
57282;DHT22;43129;52.628;10.098;2023-09-19T14:43:33;22.30;73.60
57282;DHT22;43129;52.628;10.098;2023-09-19T14:46:08;22.20;73.60
57282;DHT22;43129;52.628;10.098;2023-09-19T14:48:35;21.90;75.90
57282;DHT22;43129;52.628;10.098;2023-09-19T14:51:06;21.70;76.20
57282;DHT22;43129;52.628;10.098;2023-09-19T14:53:35;21.50;77.00
57282;DHT22;43129;52.628;10.098;2023-09-19T14:56:04;21.60;77.70
57282;DHT22;43129;52.628;10.098;2023-09-19T14:58:34;21.40;77.70
57282;DHT22;43129;52.628;10.098;2023-09-19T15:01:09;21.60;77.20
57282;DHT22;43129;52.628;10.098;2023-09-19T15:03:41;21.70;76.80
57282;DHT22;43129;52.628;10.098;2023-09-19T15:06:11;21.70;76.80
57282;DHT22;43129;52.628;10.098;2023-09-19T15:08:40;21.40;77.80
57282;DHT22;43129;52.628;10.098;2023-09-19T15:11:16;21.40;76.90
57282;DHT22;43129;52.628;10.098;2023-09-19T15:13:43;21.30;77.80
57282;DHT22;43129;52.628;10.098;2023-09-19T15:16:09;20.80;78.10
57282;DHT22;43129;52.628;10.098;2023-09-19T15:18:44;20.30;81.30
57282;DHT22;43129;52.628;10.098;2023-09-19T15:21:11;20.20;82.10
57282;DHT22;43129;52.628;10.098;2023-09-19T15:23:41;20.10;82.40
57282;DHT22;43129;52.628;10.098;2023-09-19T15:26:09;20.00;83.10
57282;DHT22;43129;52.628;10.098;2023-09-19T15:28:37;19.90;83.40
57282;DHT22;43129;52.628;10.098;2023-09-19T15:31:07;19.90;84.00
57282;DHT22;43129;52.628;10.098;2023-09-19T15:33:33;20.00;83.30
57282;DHT22;43129;52.628;10.098;2023-09-19T15:36:13;20.10;83.80
57282;DHT22;43129;52.628;10.098;2023-09-19T15:39:11;20.20;83.90
57282;DHT22;43129;52.628;10.098;2023-09-19T15:41:42;20.40;83.20
57282;DHT22;43129;52.628;10.098;2023-09-19T15:44:18;20.60;83.20
57282;DHT22;43129;52.628;10.098;2023-09-19T15:46:45;20.70;82.30
57282;DHT22;43129;52.628;10.098;2023-09-19T15:49:14;20.60;82.30
57282;DHT22;43129;52.628;10.098;2023-09-19T15:51:40;20.80;81.90
57282;DHT22;43129;52.628;10.098;2023-09-19T15:54:12;21.10;79.90
57282;DHT22;43129;52.628;10.098;2023-09-19T15:56:39;21.10;80.20
57282;DHT22;43129;52.628;10.098;2023-09-19T15:59:07;21.40;79.00
57282;DHT22;43129;52.628;10.098;2023-09-19T16:01:33;21.60;78.90
57282;DHT22;43129;52.628;10.098;2023-09-19T16:04:01;21.10;79.10
57282;DHT22;43129;52.628;10.098;2023-09-19T16:06:28;20.80;80.50
57282;DHT22;43129;52.628;10.098;2023-09-19T16:08:55;20.40;83.30
57282;DHT22;43129;52.628;10.098;2023-09-19T16:11:22;20.20;84.60
57282;DHT22;43129;52.628;10.098;2023-09-19T16:13:49;19.90;85.20
57282;DHT22;43129;52.628;10.098;2023-09-19T16:16:17;19.80;85.90
57282;DHT22;43129;52.628;10.098;2023-09-19T16:19:01;19.70;87.00
57282;DHT22;43129;52.628;10.098;2023-09-19T16:21:33;19.60;87.80
57282;DHT22;43129;52.628;10.098;2023-09-19T16:24:03;19.60;88.10
57282;DHT22;43129;52.628;10.098;2023-09-19T16:26:29;19.60;88.00
57282;DHT22;43129;52.628;10.098;2023-09-19T16:28:56;19.60;89.30
57282;DHT22;43129;52.628;10.098;2023-09-19T16:31:28;19.60;89.30
57282;DHT22;43129;52.628;10.098;2023-09-19T16:33:56;19.60;89.40